createdAt,value
2024-05-09T00:01:58.402Z,69.29
2024-05-09T00:04:01.665Z,69.77
2024-05-09T00:06:03.636Z,69.50
2024-05-09T00:08:06.047Z,69.57
2024-05-09T00:10:11.816Z,69.30
2024-05-09T00:12:19.875Z,69.36
2024-05-09T00:14:22.453Z,69.34
2024-05-09T00:16:24.124Z,69.10
2024-05-09T00:18:26.505Z,69.14
2024-05-09T00:20:36.492Z,69.33
2024-05-09T00:22:41.392Z,69.21
2024-05-09T00:24:44.344Z,69.35
2024-05-09T00:26:46.090Z,68.76
2024-05-09T00:28:47.904Z,69.14
2024-05-09T00:30:49.608Z,69.15
2024-05-09T00:32:51.766Z,69.18
2024-05-09T00:34:53.767Z,69.51
2024-05-09T00:36:55.422Z,68.95
2024-05-09T00:38:57.025Z,68.94
2024-05-09T00:40:58.731Z,69.24
2024-05-09T00:43:00.387Z,68.89
2024-05-09T00:45:02.156Z,68.68
2024-05-09T00:47:04.124Z,68.42
2024-05-09T00:49:06.019Z,68.50
2024-05-09T00:51:07.872Z,68.97
2024-05-09T00:53:13.129Z,69.31
2024-05-09T00:55:15.290Z,69.12
2024-05-09T00:57:17.060Z,68.79
2024-05-09T00:59:19.434Z,68.72
2024-05-09T01:01:23.262Z,68.61
2024-05-09T01:03:25.305Z,68.68
2024-05-09T01:05:27.042Z,68.56
2024-05-09T01:07:29.086Z,68.68
2024-05-09T01:09:30.839Z,68.53
2024-05-09T01:11:39.523Z,68.81
2024-05-09T01:13:41.281Z,68.62
2024-05-09T01:15:43.184Z,68.46
2024-05-09T01:17:46.242Z,68.75
2024-05-09T01:19:48.346Z,69.51
2024-05-09T01:21:50.098Z,69.75
2024-05-09T01:23:51.757Z,69.54
2024-05-09T01:25:53.471Z,69.57
2024-05-09T01:27:55.542Z,69.31
2024-05-09T01:29:57.232Z,69.24
2024-05-09T01:32:00.015Z,69.57
2024-05-09T01:34:01.766Z,69.98
2024-05-09T01:36:03.489Z,69.47
2024-05-09T01:38:05.388Z,69.21
2024-05-09T01:40:12.232Z,69.09
2024-05-09T01:42:17.374Z,69.35
2024-05-09T01:44:19.120Z,69.42
2024-05-09T01:46:20.890Z,69.25
2024-05-09T01:48:22.766Z,69.38
2024-05-09T01:50:35.845Z,69.10
2024-05-09T01:52:41.018Z,69.83
2024-05-09T01:54:42.702Z,69.71
2024-05-09T01:56:44.758Z,69.64
2024-05-09T01:58:46.546Z,69.68
2024-05-09T02:00:48.236Z,69.65
2024-05-09T02:02:50.281Z,69.49
2024-05-09T02:04:52.567Z,69.06
2024-05-09T02:06:54.245Z,69.44
2024-05-09T02:08:55.939Z,69.99
2024-05-09T02:10:58.848Z,69.91
2024-05-09T02:13:00.777Z,70.49
2024-05-09T02:15:02.496Z,70.91
2024-05-09T02:17:04.278Z,72.00
2024-05-09T02:19:06.434Z,73.68
2024-05-09T02:21:08.936Z,74.64
2024-05-09T02:23:10.983Z,75.11
2024-05-09T02:25:12.792Z,75.86
2024-05-09T02:27:14.392Z,77.95
2024-05-09T02:29:16.078Z,78.80
2024-05-09T02:31:17.881Z,78.94
2024-05-09T02:33:19.722Z,78.75
2024-05-09T02:35:21.546Z,78.10
2024-05-09T02:37:23.304Z,77.20
2024-05-09T02:39:24.929Z,76.93
2024-05-09T02:41:27.212Z,77.40
2024-05-09T02:43:29.230Z,77.03
2024-05-09T02:45:30.921Z,76.09
2024-05-09T02:47:32.667Z,76.50
2024-05-09T02:49:34.530Z,76.69
2024-05-09T02:51:36.386Z,77.14
2024-05-09T02:53:38.280Z,77.40
2024-05-09T02:55:40.310Z,77.68
2024-05-09T02:57:42.030Z,77.79
2024-05-09T02:59:43.759Z,77.58
2024-05-09T03:01:45.614Z,78.00
2024-05-09T03:03:48.586Z,77.71
2024-05-09T03:05:50.427Z,78.01
2024-05-09T03:07:52.126Z,78.17
2024-05-09T03:09:53.838Z,77.96
2024-05-09T03:11:55.633Z,78.39
2024-05-09T03:13:57.457Z,78.67
2024-05-09T03:15:59.894Z,78.51
2024-05-09T03:18:01.971Z,78.67
2024-05-09T03:20:05.238Z,78.47
2024-05-09T03:22:08.682Z,79.04
2024-05-09T03:24:10.778Z,78.63
2024-05-09T03:26:12.995Z,78.42
2024-05-09T03:28:15.016Z,78.54
2024-05-09T03:30:28.903Z,77.78
2024-05-09T03:32:37.413Z,77.69
2024-05-09T03:34:39.421Z,78.23
2024-05-09T03:36:41.455Z,77.61
2024-05-09T03:38:43.150Z,77.56
2024-05-09T03:40:49.313Z,77.30
2024-05-09T03:42:51.648Z,76.66
2024-05-09T03:44:56.261Z,75.77
2024-05-09T03:46:58.115Z,75.21
2024-05-09T03:48:59.838Z,75.66
2024-05-09T03:51:01.769Z,75.60
2024-05-09T03:53:03.856Z,75.48
2024-05-09T03:55:05.742Z,74.92
2024-05-09T03:57:07.480Z,74.92
2024-05-09T03:59:09.463Z,74.54
2024-05-09T04:01:11.196Z,74.37
2024-05-09T04:03:13.578Z,74.29
2024-05-09T04:05:15.489Z,74.58
2024-05-09T04:07:17.340Z,74.54
2024-05-09T04:09:18.974Z,74.44
2024-05-09T04:11:20.827Z,73.67
2024-05-09T04:13:22.705Z,73.84
2024-05-09T04:15:26.358Z,73.93
2024-05-09T04:17:28.985Z,73.64
2024-05-09T04:19:30.980Z,73.73
2024-05-09T04:21:32.795Z,73.81
2024-05-09T04:23:34.527Z,74.11
2024-05-09T04:25:36.374Z,73.93
2024-05-09T04:27:38.069Z,74.11
2024-05-09T04:29:40.072Z,73.67
2024-05-09T04:31:41.913Z,73.43
2024-05-09T04:33:44.124Z,73.37
2024-05-09T04:35:45.883Z,73.79
2024-05-09T04:37:47.687Z,73.08
2024-05-09T04:39:49.346Z,72.88
2024-05-09T04:41:51.133Z,73.53
2024-05-09T04:43:52.810Z,73.43
2024-05-09T04:45:54.460Z,73.52
2024-05-09T04:47:56.431Z,74.36
2024-05-09T04:49:58.274Z,73.94
2024-05-09T04:51:59.916Z,73.53
2024-05-09T04:54:02.089Z,73.40
2024-05-09T04:56:03.831Z,73.42
2024-05-09T04:58:08.098Z,73.35
2024-05-09T05:00:14.764Z,73.59
2024-05-09T05:02:23.344Z,74.65
2024-05-09T05:04:25.292Z,75.27
2024-05-09T05:06:26.928Z,75.59
2024-05-09T05:08:28.777Z,75.78
2024-05-09T05:10:35.785Z,76.58
2024-05-09T05:12:57.119Z,75.95
2024-05-09T05:14:58.753Z,77.62
2024-05-09T05:17:00.387Z,77.48
2024-05-09T05:19:02.365Z,78.38
2024-05-09T05:21:04.248Z,78.11
2024-05-09T05:23:08.031Z,78.28
2024-05-09T05:25:09.857Z,77.49
2024-05-09T05:27:11.478Z,77.29
2024-05-09T05:29:13.343Z,76.94
2024-05-09T05:31:15.741Z,77.57
2024-05-09T05:33:22.555Z,78.72
2024-05-09T05:35:24.859Z,78.47
2024-05-09T05:37:26.968Z,79.03
2024-05-09T05:39:28.651Z,79.51
2024-05-09T05:41:30.465Z,78.85
2024-05-09T05:43:32.253Z,79.21
2024-05-09T05:45:33.960Z,79.23
2024-05-09T05:47:36.933Z,79.67
2024-05-09T05:49:38.850Z,79.76
2024-05-09T05:51:40.566Z,79.66
2024-05-09T05:53:42.763Z,79.41
2024-05-09T05:55:45.872Z,78.89
2024-05-09T05:57:47.685Z,79.33
2024-05-09T05:59:49.371Z,78.49
2024-05-09T06:01:51.044Z,78.45
2024-05-09T06:03:52.935Z,78.48
2024-05-09T06:05:54.689Z,79.34
2024-05-09T06:07:56.419Z,79.94
2024-05-09T06:09:58.161Z,80.19
2024-05-09T06:11:59.943Z,81.06
2024-05-09T06:14:01.871Z,80.98
2024-05-09T06:16:05.111Z,81.19
2024-05-09T06:18:07.564Z,81.35
2024-05-09T06:20:16.739Z,81.87
2024-05-09T06:22:25.361Z,82.45
2024-05-09T06:24:27.003Z,81.92
2024-05-09T06:26:28.928Z,81.42
2024-05-09T06:28:30.682Z,81.72
2024-05-09T06:30:40.413Z,81.44
2024-05-09T06:32:44.235Z,81.55
2024-05-09T06:34:46.872Z,82.03
2024-05-09T06:36:48.708Z,81.33
2024-05-09T06:38:50.332Z,80.86
2024-05-09T06:40:52.137Z,80.63
2024-05-09T06:42:54.705Z,80.29
2024-05-09T06:44:59.312Z,80.02
2024-05-09T06:47:01.115Z,80.67
2024-05-09T06:49:08.096Z,79.97
2024-05-09T06:51:09.918Z,79.68
2024-05-09T06:53:13.596Z,79.96
2024-05-09T06:55:15.224Z,80.13
2024-05-09T06:57:16.910Z,80.16
2024-05-09T06:59:18.570Z,79.51
2024-05-09T07:01:20.531Z,78.78
2024-05-09T07:03:22.362Z,78.96
2024-05-09T07:05:24.210Z,77.82
2024-05-09T07:07:26.231Z,77.64
2024-05-09T07:09:28.239Z,77.81
2024-05-09T07:11:31.739Z,79.00
2024-05-09T07:13:33.466Z,78.35
2024-05-09T07:15:35.106Z,77.67
2024-05-09T07:17:36.964Z,76.76
2024-05-09T07:19:38.982Z,77.16
2024-05-09T07:21:40.736Z,77.41
2024-05-09T07:23:45.180Z,77.60
2024-05-09T07:25:48.002Z,77.86
2024-05-09T07:27:49.771Z,77.37
2024-05-09T07:29:51.526Z,76.53
2024-05-09T07:31:55.489Z,77.23
2024-05-09T07:33:57.628Z,77.12
2024-05-09T07:35:59.403Z,77.21
2024-05-09T07:38:01.071Z,77.61
2024-05-09T07:40:05.788Z,77.18
2024-05-09T07:42:07.615Z,76.13
2024-05-09T07:44:09.284Z,74.74
2024-05-09T07:47:14.084Z,75.05
2024-05-09T07:50:34.329Z,73.98
2024-05-09T07:52:39.182Z,73.88
2024-05-09T07:53:38.316Z,75.92
2024-05-09T07:55:39.546Z,75.30
2024-05-09T07:57:41.327Z,74.97
2024-05-09T07:59:44.086Z,75.51
2024-05-09T08:01:45.902Z,75.10
2024-05-09T08:03:47.780Z,73.86
2024-05-09T08:05:49.847Z,75.46
2024-05-09T08:07:51.873Z,74.43
2024-05-09T08:09:53.800Z,74.83
2024-05-09T08:11:55.491Z,74.94
2024-05-09T08:13:57.195Z,75.00
2024-05-09T08:15:59.095Z,75.78
2024-05-09T08:18:01.012Z,76.38
2024-05-09T08:20:05.512Z,76.53
2024-05-09T08:22:07.867Z,76.41
2024-05-09T08:24:10.585Z,76.36
2024-05-09T08:26:12.366Z,76.54
2024-05-09T08:28:15.343Z,76.46
2024-05-09T08:30:24.639Z,76.24
2024-05-09T08:32:32.539Z,76.64
2024-05-09T08:34:34.471Z,76.54
2024-05-09T08:36:37.638Z,77.28
2024-05-09T08:38:39.342Z,77.91
2024-05-09T08:40:41.506Z,78.32
2024-05-09T08:42:45.398Z,78.52
2024-05-09T08:44:48.319Z,79.13
2024-05-09T08:46:53.103Z,79.04
2024-05-09T08:48:55.644Z,79.18
2024-05-09T08:50:59.526Z,79.14
2024-05-09T08:53:01.227Z,79.22
2024-05-09T08:55:03.227Z,78.99
2024-05-09T08:57:05.180Z,78.76
2024-05-09T08:59:06.910Z,78.46
2024-05-09T09:01:08.660Z,78.51
2024-05-09T09:03:11.758Z,78.40
2024-05-09T09:05:17.305Z,78.76
2024-05-09T09:07:19.199Z,78.00
2024-05-09T09:09:21.283Z,78.75
2024-05-09T09:11:23.123Z,78.15
2024-05-09T09:13:25.266Z,77.67
2024-05-09T09:15:27.114Z,77.66
2024-05-09T09:17:28.898Z,77.41
2024-05-09T09:19:30.678Z,77.05
2024-05-09T09:21:32.534Z,76.90
2024-05-09T09:23:34.219Z,77.01
2024-05-09T09:25:35.857Z,77.11
2024-05-09T09:27:37.530Z,76.72
2024-05-09T09:29:39.721Z,76.58
2024-05-09T09:31:42.289Z,77.20
2024-05-09T09:33:44.269Z,76.96
2024-05-09T09:35:46.099Z,76.83
2024-05-09T09:37:47.744Z,77.14
2024-05-09T09:39:49.500Z,76.16
2024-05-09T09:41:51.198Z,75.90
2024-05-09T09:43:53.124Z,75.80
2024-05-09T09:45:55.981Z,75.99
2024-05-09T09:47:57.789Z,75.85
2024-05-09T09:49:59.445Z,75.32
2024-05-09T09:52:02.422Z,75.64
2024-05-09T09:54:04.129Z,75.03
2024-05-09T09:56:06.709Z,75.23
2024-05-09T09:58:10.847Z,75.25
2024-05-09T10:00:20.700Z,75.15
2024-05-09T10:02:25.978Z,75.58
2024-05-09T10:04:27.870Z,74.99
2024-05-09T10:06:29.691Z,74.35
2024-05-09T10:08:31.296Z,74.68
2024-05-09T10:10:35.207Z,75.18
2024-05-09T10:12:37.121Z,74.06
2024-05-09T10:14:56.548Z,73.78
2024-05-09T10:17:05.305Z,73.25
2024-05-09T10:19:07.057Z,72.85
2024-05-09T10:21:15.620Z,72.48
2024-05-09T10:23:27.290Z,72.39
2024-05-09T10:25:28.934Z,72.20
2024-05-09T10:27:30.745Z,71.69
2024-05-09T10:29:32.518Z,72.22
2024-05-09T10:31:34.420Z,71.86
2024-05-09T10:33:39.890Z,72.75
2024-05-09T10:35:50.588Z,72.88
2024-05-09T10:37:52.943Z,73.38
2024-05-09T10:39:56.005Z,72.16
2024-05-09T10:41:57.787Z,72.84
2024-05-09T10:43:59.761Z,73.25
2024-05-09T10:46:01.410Z,73.75
2024-05-09T10:48:03.405Z,73.72
2024-05-09T10:50:15.661Z,73.53
2024-05-09T10:52:24.421Z,72.94
2024-05-09T10:54:35.077Z,72.09
2024-05-09T10:56:36.814Z,71.88
2024-05-09T10:58:38.497Z,71.39
2024-05-09T11:00:40.252Z,71.92
2024-05-09T11:02:42.803Z,71.82
2024-05-09T11:04:48.056Z,71.70
2024-05-09T11:06:49.777Z,69.94
2024-05-09T11:08:51.396Z,71.01
2024-05-09T11:10:53.982Z,70.95
2024-05-09T11:12:55.875Z,69.90
2024-05-09T11:14:57.528Z,69.67
2024-05-09T11:17:05.946Z,70.99
2024-05-09T11:19:12.063Z,71.40
2024-05-09T11:21:14.115Z,72.73
2024-05-09T11:23:15.860Z,74.00
2024-05-09T11:25:17.752Z,75.49
2024-05-09T11:27:20.749Z,75.51
2024-05-09T11:29:22.373Z,77.05
2024-05-09T11:31:24.564Z,76.53
2024-05-09T11:33:26.436Z,76.62
2024-05-09T11:35:29.477Z,77.14
2024-05-09T11:37:34.685Z,77.53
2024-05-09T11:39:38.408Z,76.68
2024-05-09T11:41:40.138Z,76.84
2024-05-09T11:43:41.814Z,74.90
2024-05-09T11:45:44.749Z,74.71
2024-05-09T11:47:46.803Z,75.09
2024-05-09T11:49:48.567Z,75.09
2024-05-09T11:51:50.409Z,74.77
2024-05-09T11:53:52.244Z,72.46
2024-05-09T11:55:53.870Z,73.32
2024-05-09T11:57:55.669Z,73.22
2024-05-09T11:59:57.660Z,71.20
2024-05-09T12:01:59.377Z,68.80
2024-05-09T12:04:01.404Z,68.21
2024-05-09T12:06:03.900Z,67.83
2024-05-09T12:08:05.902Z,68.93
2024-05-09T12:10:11.947Z,68.14
2024-05-09T12:12:18.359Z,69.43
2024-05-09T12:14:20.127Z,68.57
2024-05-09T12:16:22.000Z,69.55
2024-05-09T12:18:23.864Z,68.77
2024-05-09T12:20:32.998Z,69.35
2024-05-09T12:22:38.847Z,68.03
2024-05-09T12:24:40.582Z,68.33
2024-05-09T12:26:42.336Z,66.98
2024-05-09T12:28:44.085Z,65.64
2024-05-09T12:30:46.230Z,66.45
2024-05-09T12:32:49.729Z,67.90
2024-05-09T12:34:51.657Z,68.03
2024-05-09T12:36:53.296Z,67.03
2024-05-09T12:38:55.025Z,65.77
2024-05-09T12:40:56.812Z,67.19
2024-05-09T12:42:58.687Z,68.12
2024-05-09T12:45:00.306Z,65.83
2024-05-09T12:47:02.091Z,66.58
2024-05-09T12:49:04.074Z,67.17
2024-05-09T12:51:06.161Z,67.11
2024-05-09T12:53:08.067Z,66.88
2024-05-09T12:55:10.700Z,67.22
2024-05-09T12:57:12.537Z,66.99
2024-05-09T12:59:14.881Z,67.57
2024-05-09T13:01:16.865Z,67.71
2024-05-09T13:03:18.665Z,67.08
2024-05-09T13:05:20.657Z,67.04
2024-05-09T13:07:22.564Z,67.03
2024-05-09T13:09:24.392Z,67.99
2024-05-09T13:11:26.637Z,66.61
2024-05-09T13:13:29.362Z,67.58
2024-05-09T13:15:31.447Z,65.30
2024-05-09T13:17:33.347Z,66.52
2024-05-09T13:19:35.050Z,66.56
2024-05-09T13:21:36.956Z,66.77
2024-05-09T13:23:38.702Z,66.36
2024-05-09T13:25:40.498Z,64.48
2024-05-09T13:27:45.430Z,65.38
2024-05-09T13:29:47.187Z,66.44
2024-05-09T13:31:48.899Z,66.18
2024-05-09T13:33:50.636Z,65.99
2024-05-09T13:35:52.486Z,66.78
2024-05-09T13:37:54.143Z,66.38
2024-05-09T13:39:55.815Z,64.71
2024-05-09T13:41:57.642Z,65.15
2024-05-09T13:43:59.390Z,65.25
2024-05-09T13:46:01.058Z,64.91
2024-05-09T13:48:04.545Z,65.31
2024-05-09T13:50:09.065Z,65.37
2024-05-09T13:52:13.140Z,65.78
2024-05-09T13:54:16.684Z,66.77
2024-05-09T13:56:19.552Z,68.64
2024-05-09T13:58:23.546Z,69.30
2024-05-09T14:02:32.124Z,70.18
2024-05-09T14:04:34.042Z,70.88
2024-05-09T14:06:36.592Z,71.39
2024-05-09T14:08:38.292Z,72.24
2024-05-09T14:10:44.251Z,72.68
2024-05-09T14:12:46.762Z,73.55
2024-05-09T14:14:48.602Z,73.38
2024-05-09T14:16:50.366Z,74.71
2024-05-09T14:18:52.225Z,74.59
2024-05-09T14:20:53.915Z,75.03
2024-05-09T14:22:55.602Z,75.21
2024-05-09T14:24:57.411Z,75.64
2024-05-09T14:26:59.061Z,75.82
2024-05-09T14:29:01.844Z,76.46
2024-05-09T14:31:03.895Z,76.54
2024-05-09T14:33:06.764Z,76.73
2024-05-09T14:35:09.585Z,76.12
2024-05-09T14:37:11.509Z,76.49
2024-05-09T14:39:13.196Z,75.07
2024-05-09T14:41:15.086Z,75.01
2024-05-09T14:43:17.130Z,74.37
2024-05-09T14:45:19.252Z,74.14
2024-05-09T14:47:20.990Z,74.01
2024-05-09T14:49:23.262Z,74.53
2024-05-09T14:51:25.292Z,74.33
2024-05-09T14:53:28.311Z,73.69
2024-05-09T14:55:30.077Z,74.06
2024-05-09T14:57:31.869Z,73.52
2024-05-09T14:59:34.214Z,73.50
2024-05-09T15:01:35.947Z,72.96
2024-05-09T15:03:37.777Z,72.73
2024-05-09T15:05:40.105Z,72.46
2024-05-09T15:07:43.499Z,72.73
2024-05-09T15:09:45.354Z,72.56
2024-05-09T15:11:47.775Z,73.05
2024-05-09T15:13:49.971Z,73.01
2024-05-09T15:15:51.924Z,72.78
2024-05-09T15:17:54.683Z,73.17
2024-05-09T15:19:56.445Z,73.48
2024-05-09T15:21:58.435Z,73.57
2024-05-09T15:24:00.486Z,73.96
2024-05-09T15:26:03.425Z,74.54
2024-05-09T15:28:07.934Z,75.03
2024-05-09T15:30:10.849Z,74.94
2024-05-09T15:32:14.772Z,74.59
2024-05-09T15:34:16.446Z,74.03
2024-05-09T15:36:18.156Z,74.05
2024-05-09T15:38:20.991Z,73.96
2024-05-09T15:40:31.468Z,73.98
2024-05-09T15:42:42.703Z,74.97
2024-05-09T15:44:52.851Z,74.36
2024-05-09T15:46:54.604Z,74.62
2024-05-09T15:48:56.447Z,75.38
2024-05-09T15:50:58.346Z,75.26
2024-05-09T15:53:01.071Z,76.48
2024-05-09T15:55:02.888Z,76.71
2024-05-09T15:57:05.076Z,77.13
2024-05-09T15:59:06.859Z,76.54
2024-05-09T16:01:09.050Z,76.89
2024-05-09T16:03:11.995Z,76.42
2024-05-09T16:05:14.682Z,76.33
2024-05-09T16:07:16.468Z,76.09
2024-05-09T16:09:18.325Z,76.76
2024-05-09T16:11:21.029Z,76.21
2024-05-09T16:13:22.914Z,76.36
2024-05-09T16:15:24.836Z,75.88
2024-05-09T16:17:27.391Z,76.35
2024-05-09T16:19:29.118Z,76.64
2024-05-09T16:21:30.774Z,77.21
2024-05-09T16:23:32.522Z,77.00
2024-05-09T16:25:34.159Z,77.32
2024-05-09T16:27:35.868Z,78.21
2024-05-09T16:29:37.653Z,78.50
2024-05-09T16:31:39.365Z,78.11
2024-05-09T16:33:41.364Z,78.21
2024-05-09T16:35:43.355Z,78.65
2024-05-09T16:37:45.054Z,78.64
2024-05-09T16:39:46.704Z,78.44
2024-05-09T16:41:48.304Z,77.88
2024-05-09T16:43:49.970Z,78.54
2024-05-09T16:45:51.706Z,77.56
2024-05-09T16:47:53.660Z,76.67
2024-05-09T16:49:55.365Z,75.83
2024-05-09T16:51:57.153Z,76.66
2024-05-09T16:53:59.010Z,76.59
2024-05-09T16:56:02.343Z,76.21
2024-05-09T16:58:04.784Z,76.28
2024-05-09T17:00:14.535Z,76.32
2024-05-09T17:02:20.100Z,75.60
2024-05-09T17:04:22.455Z,75.23
2024-05-09T17:06:24.201Z,75.05
2024-05-09T17:08:25.926Z,74.47
2024-05-09T17:10:32.635Z,73.46
2024-05-09T17:12:36.532Z,73.65
2024-05-09T17:14:38.269Z,73.81
2024-05-09T17:16:39.987Z,73.86
2024-05-09T17:18:41.752Z,73.75
2024-05-09T17:20:44.688Z,73.49
2024-05-09T17:22:46.564Z,73.39
2024-05-09T17:24:48.266Z,73.69
2024-05-09T17:26:50.171Z,73.87
2024-05-09T17:28:51.784Z,73.49
2024-05-09T17:30:53.635Z,73.71
2024-05-09T17:32:55.387Z,73.87
2024-05-09T17:34:57.300Z,73.05
2024-05-09T17:37:00.570Z,72.76
2024-05-09T17:39:02.244Z,72.61
2024-05-09T17:41:04.036Z,72.53
2024-05-09T17:43:07.261Z,72.77
2024-05-09T17:45:10.326Z,73.00
2024-05-09T17:47:12.028Z,73.13
2024-05-09T17:49:13.849Z,72.89
2024-05-09T17:51:15.603Z,72.99
2024-05-09T17:53:17.279Z,73.05
2024-05-09T17:55:19.129Z,72.75
2024-05-09T17:57:21.007Z,72.87
2024-05-09T17:59:22.834Z,73.02
2024-05-09T18:01:25.888Z,72.52
2024-05-09T18:03:27.792Z,72.28
2024-05-09T18:05:29.821Z,72.03
2024-05-09T18:07:31.964Z,72.43
2024-05-09T18:09:33.782Z,72.83
2024-05-09T18:11:37.711Z,72.96
2024-05-09T18:13:40.023Z,72.52
2024-05-09T18:15:41.962Z,72.54
2024-05-09T18:17:43.786Z,72.29
2024-05-09T18:19:45.601Z,72.02
2024-05-09T18:21:48.782Z,72.28
2024-05-09T18:23:52.634Z,71.96
2024-05-09T18:25:55.229Z,71.76
2024-05-09T18:27:57.498Z,71.54
2024-05-09T18:29:59.121Z,71.88
2024-05-09T18:32:00.871Z,72.47
2024-05-09T18:34:02.688Z,72.37
2024-05-09T18:36:04.380Z,72.27
2024-05-09T18:38:06.244Z,70.51
2024-05-09T18:40:12.153Z,70.92
2024-05-09T18:42:19.890Z,72.33
2024-05-09T18:44:21.642Z,73.50
2024-05-09T18:46:23.584Z,74.00
2024-05-09T18:48:25.332Z,73.13
2024-05-09T18:50:34.553Z,73.50
2024-05-09T18:52:39.795Z,74.33
2024-05-09T18:54:41.459Z,74.70
2024-05-09T18:56:43.104Z,74.82
2024-05-09T18:58:45.032Z,75.16
2024-05-09T19:00:49.800Z,74.95
2024-05-09T19:02:53.242Z,74.87
2024-05-09T19:04:55.373Z,74.94
2024-05-09T19:06:57.286Z,75.15
2024-05-09T19:08:58.905Z,72.45
2024-05-09T19:11:02.056Z,74.37
2024-05-09T19:13:08.670Z,74.24
2024-05-09T19:15:13.827Z,74.84
2024-05-09T19:17:16.933Z,76.33
2024-05-09T19:19:18.712Z,76.04
2024-05-09T19:21:20.526Z,75.47
2024-05-09T19:23:22.397Z,74.88
2024-05-09T19:25:24.023Z,75.11
2024-05-09T19:27:25.656Z,74.60
2024-05-09T19:29:27.474Z,75.12
2024-05-09T19:31:29.232Z,75.14
2024-05-09T19:33:32.273Z,74.67
2024-05-09T19:35:36.266Z,74.48
2024-05-09T19:37:37.970Z,74.60
2024-05-09T19:39:39.743Z,75.51
2024-05-09T19:41:41.480Z,75.99
2024-05-09T19:43:43.415Z,75.46
2024-05-09T19:45:45.336Z,75.78
2024-05-09T19:47:47.136Z,77.33
2024-05-09T19:49:48.812Z,78.20
2024-05-09T19:51:50.964Z,78.89
2024-05-09T19:53:54.302Z,79.84
2024-05-09T19:55:57.940Z,79.85
2024-05-09T19:58:01.619Z,80.68
2024-05-09T20:00:06.207Z,81.06
2024-05-09T20:02:11.412Z,80.29
2024-05-09T20:04:13.328Z,80.12
2024-05-09T20:06:15.072Z,80.02
2024-05-09T20:08:16.775Z,79.21
2024-05-09T20:10:23.824Z,78.95
2024-05-09T20:12:28.463Z,78.59
2024-05-09T20:14:30.153Z,77.58
2024-05-09T20:16:32.144Z,77.55
2024-05-09T20:18:34.037Z,76.77
2024-05-09T20:20:40.101Z,76.90
2024-05-09T20:22:44.651Z,76.98
2024-05-09T20:24:46.397Z,77.26
2024-05-09T20:26:48.045Z,76.60
2024-05-09T20:28:49.675Z,77.50
2024-05-09T20:30:51.517Z,77.66
2024-05-09T20:32:53.289Z,78.64
2024-05-09T20:34:55.010Z,79.89
2024-05-09T20:36:57.148Z,80.20
2024-05-09T20:38:58.983Z,80.38
2024-05-09T20:41:00.655Z,81.01
2024-05-09T20:43:02.708Z,81.28
2024-05-09T20:45:04.697Z,81.91
2024-05-09T20:47:06.421Z,81.27
2024-05-09T20:49:08.226Z,80.67
2024-05-09T20:51:10.002Z,80.44
2024-05-09T20:53:13.007Z,80.78
2024-05-09T20:55:17.114Z,80.61
2024-05-09T20:57:18.835Z,79.81
2024-05-09T20:59:20.512Z,79.51
2024-05-09T21:01:22.212Z,80.01
2024-05-09T21:03:25.387Z,79.64
2024-05-09T21:05:27.192Z,78.87
2024-05-09T21:07:29.089Z,79.04
2024-05-09T21:09:30.783Z,79.24
2024-05-09T21:11:32.927Z,78.75
2024-05-09T21:13:35.596Z,78.88
2024-05-09T21:15:37.336Z,77.56
2024-05-09T21:17:39.450Z,77.73
2024-05-09T21:19:41.137Z,77.00
2024-05-09T21:21:42.898Z,76.68
2024-05-09T21:23:44.623Z,76.33
2024-05-09T21:25:46.425Z,76.04
2024-05-09T21:27:48.167Z,75.75
2024-05-09T21:29:49.981Z,75.80
2024-05-09T21:31:51.660Z,76.01
2024-05-09T21:33:53.377Z,75.56
2024-05-09T21:35:56.494Z,75.95
2024-05-09T21:37:58.232Z,75.20
2024-05-09T21:40:01.091Z,75.62
2024-05-09T21:42:02.890Z,75.49
2024-05-09T21:44:04.727Z,75.27
2024-05-09T21:46:06.430Z,75.70
2024-05-09T21:48:08.478Z,75.24
2024-05-09T21:50:18.514Z,75.45
2024-05-09T21:52:24.836Z,74.74
2024-05-09T21:54:26.502Z,74.66
2024-05-09T21:56:28.131Z,74.84
2024-05-09T21:58:29.816Z,75.70
2024-05-09T22:00:36.969Z,75.96
2024-05-09T22:02:43.199Z,76.78
2024-05-09T22:04:45.116Z,78.17
2024-05-09T22:06:46.973Z,79.09
2024-05-09T22:08:48.626Z,79.46
2024-05-09T22:10:51.249Z,79.91
2024-05-09T22:12:53.105Z,79.63
2024-05-09T22:14:55.331Z,79.95
2024-05-09T22:16:57.156Z,80.18
2024-05-09T22:18:59.308Z,80.58
2024-05-09T22:21:00.968Z,81.12
2024-05-09T22:23:02.677Z,81.95
2024-05-09T22:25:04.562Z,81.35
2024-05-09T22:27:06.240Z,81.51
2024-05-09T22:29:07.898Z,81.39
2024-05-09T22:31:09.623Z,80.61
2024-05-09T22:33:12.335Z,80.05
2024-05-09T22:35:14.419Z,81.22
2024-05-09T22:37:16.243Z,81.19
2024-05-09T22:39:18.111Z,81.63
2024-05-09T22:41:19.855Z,81.31
2024-05-09T22:43:23.827Z,81.65
2024-05-09T22:45:26.782Z,82.33
2024-05-09T22:47:28.578Z,82.77
2024-05-09T22:49:30.240Z,83.62
2024-05-09T22:51:31.909Z,83.67
2024-05-09T22:53:33.666Z,83.12
2024-05-09T22:55:35.303Z,83.56
2024-05-09T22:57:37.010Z,84.58
2024-05-09T22:59:38.872Z,85.12
2024-05-09T23:01:40.542Z,85.53
2024-05-09T23:03:42.529Z,85.51
2024-05-09T23:05:44.297Z,84.74
2024-05-09T23:07:45.941Z,84.33
2024-05-09T23:09:47.640Z,84.45
2024-05-09T23:11:51.672Z,83.16
2024-05-09T23:13:53.406Z,82.14
2024-05-09T23:15:55.074Z,82.27
2024-05-09T23:17:58.104Z,82.92
2024-05-09T23:20:00.536Z,82.65
2024-05-09T23:22:02.253Z,82.36
2024-05-09T23:24:04.068Z,82.32
2024-05-09T23:26:05.765Z,82.68
2024-05-09T23:28:07.901Z,82.48
2024-05-09T23:30:12.299Z,82.46
2024-05-09T23:32:14.259Z,83.22
2024-05-09T23:34:16.063Z,83.46
2024-05-09T23:36:17.878Z,83.24
2024-05-09T23:38:22.502Z,83.10
2024-05-09T23:40:36.881Z,83.58
2024-05-09T23:42:42.061Z,84.46
2024-05-09T23:44:43.795Z,84.87
2024-05-09T23:46:45.592Z,84.87
2024-05-09T23:48:47.633Z,85.27
2024-05-09T23:50:49.312Z,85.30
2024-05-09T23:52:50.910Z,85.46
2024-05-09T23:54:52.685Z,85.28
2024-05-09T23:56:54.782Z,84.27
2024-05-09T23:58:56.412Z,82.93
